Time;durP1;ratioP1;P1;durP2;ratioP2;P2;SDS_P1;SDS_P2;PMS_P1;PMS_P2;Temp;Humidity;BMP_temperature;BMP_pressure;BME280_temperature;BME280_humidity;BME280_pressure;Samples;Min_cycle;Max_cycle;Signal;HPM_P1;HPM_P2
2023/09/01 00:01:58;;;;;;;;;;;25.00;71.50;;;;;;5033662;28;43026;-78
2023/09/01 00:04:23;;;;;;;;;;;25.10;71.40;;;;;;5031313;28;42961;-79
2023/09/01 00:06:49;;;;;;;;;;;25.50;71.60;;;;;;5032184;28;43818;-78
2023/09/01 00:09:14;;;;;;;;;;;25.20;71.60;;;;;;5034124;28;42862;-79
2023/09/01 00:11:40;;;;;;;;;;;25.20;71.40;;;;;;5032010;28;43537;-78
2023/09/01 00:14:05;;;;;;;;;;;25.20;71.90;;;;;;5032430;28;42977;-79
2023/09/01 00:16:31;;;;;;;;;;;25.10;71.40;;;;;;5030771;28;43152;-79
2023/09/01 00:18:56;;;;;;;;;;;25.10;71.30;;;;;;5036520;28;42906;-79
2023/09/01 00:21:22;;;;;;;;;;;25.20;71.50;;;;;;5017114;28;42973;-78
2023/09/01 00:23:47;;;;;;;;;;;25.10;71.50;;;;;;5034104;28;42926;-78
2023/09/01 00:26:13;;;;;;;;;;;25.20;71.90;;;;;;5027778;28;44677;-79
2023/09/01 00:28:38;;;;;;;;;;;25.20;71.80;;;;;;5038950;28;42982;-78
2023/09/01 00:31:04;;;;;;;;;;;25.10;71.80;;;;;;5035737;28;43542;-78
2023/09/01 00:33:30;;;;;;;;;;;25.00;71.90;;;;;;5034130;28;43091;-78
2023/09/01 00:35:56;;;;;;;;;;;25.10;71.90;;;;;;5026763;28;44270;-79
2023/09/01 00:38:24;;;;;;;;;;;24.90;71.60;;;;;;5042930;28;43163;-79
2023/09/01 00:40:50;;;;;;;;;;;24.00;71.00;;;;;;5040770;28;43172;-78
2023/09/01 00:43:15;;;;;;;;;;;24.90;71.70;;;;;;5022325;28;43161;-78
2023/09/01 00:45:41;;;;;;;;;;;25.10;72.00;;;;;;5034889;28;43016;-79
2023/09/01 00:48:10;;;;;;;;;;;25.10;71.70;;;;;;5023816;28;42989;-79
2023/09/01 00:50:36;;;;;;;;;;;25.00;70.20;;;;;;5026268;28;43773;-79
2023/09/01 00:53:02;;;;;;;;;;;25.20;71.80;;;;;;5030032;28;43104;-79
2023/09/01 00:55:29;;;;;;;;;;;24.80;71.40;;;;;;5028707;28;43391;-79
2023/09/01 00:57:54;;;;;;;;;;;25.00;71.70;;;;;;5038888;28;43456;-79
2023/09/01 01:00:20;;;;;;;;;;;24.70;71.40;;;;;;5034747;28;42953;-79
2023/09/01 01:02:48;;;;;;;;;;;24.90;71.50;;;;;;5034617;28;42970;-79
2023/09/01 01:05:15;;;;;;;;;;;25.00;69.60;;;;;;5026661;28;45000;-79
2023/09/01 01:08:00;;;;;;;;;;;25.20;71.80;;;;;;5037075;28;42920;-79
2023/09/01 01:10:34;;;;;;;;;;;24.90;69.60;;;;;;5035946;28;43770;-79
2023/09/01 01:13:07;;;;;;;;;;;24.90;69.20;;;;;;5026834;28;43009;-79
2023/09/01 01:15:34;;;;;;;;;;;24.90;69.10;;;;;;5026391;28;43006;-79
2023/09/01 01:18:01;;;;;;;;;;;25.10;71.40;;;;;;5032176;28;43078;-79
2023/09/01 01:20:37;;;;;;;;;;;24.80;71.20;;;;;;5038972;28;43483;-79
2023/09/01 01:23:06;;;;;;;;;;;25.10;68.90;;;;;;5032687;28;43045;-79
2023/09/01 01:25:31;;;;;;;;;;;25.00;68.80;;;;;;5036247;28;42963;-79
2023/09/01 01:27:57;;;;;;;;;;;25.20;71.20;;;;;;5035338;28;43018;-79
2023/09/01 01:30:23;;;;;;;;;;;24.80;70.90;;;;;;5036314;28;44258;-79
2023/09/01 01:32:49;;;;;;;;;;;24.80;70.70;;;;;;5031357;28;43098;-79
2023/09/01 01:35:20;;;;;;;;;;;24.50;70.70;;;;;;5034535;28;43634;-79
2023/09/01 01:37:48;;;;;;;;;;;25.10;71.20;;;;;;5042792;28;43005;-79
2023/09/01 01:40:14;;;;;;;;;;;25.10;71.20;;;;;;5027853;28;43544;-79
2023/09/01 01:42:43;;;;;;;;;;;25.10;71.50;;;;;;5033931;28;42919;-79
2023/09/01 01:45:11;;;;;;;;;;;25.00;71.40;;;;;;5031224;28;42985;-79
2023/09/01 01:47:37;;;;;;;;;;;25.10;70.70;;;;;;5034116;28;42999;-79
2023/09/01 01:50:02;;;;;;;;;;;25.10;71.30;;;;;;5030045;28;43533;-79
2023/09/01 01:52:28;;;;;;;;;;;24.90;71.20;;;;;;5032442;28;42990;-79
2023/09/01 01:54:53;;;;;;;;;;;25.00;71.30;;;;;;5028901;28;43921;-79
2023/09/01 01:57:19;;;;;;;;;;;25.40;71.80;;;;;;5036342;28;43391;-79
2023/09/01 01:59:44;;;;;;;;;;;25.10;71.40;;;;;;5037697;28;42981;-79
2023/09/01 02:02:10;;;;;;;;;;;24.90;71.20;;;;;;5036040;28;42887;-79
2023/09/01 02:04:35;;;;;;;;;;;24.90;71.30;;;;;;5032921;28;43079;-79
2023/09/01 02:07:05;;;;;;;;;;;25.00;71.40;;;;;;5036927;28;43168;-79
2023/09/01 02:09:32;;;;;;;;;;;24.90;71.10;;;;;;5037239;28;44573;-79
2023/09/01 02:11:57;;;;;;;;;;;24.90;71.50;;;;;;5037584;28;42921;-79
2023/09/01 02:14:23;;;;;;;;;;;24.80;71.70;;;;;;5030538;28;43065;-79
2023/09/01 02:16:49;;;;;;;;;;;24.90;71.40;;;;;;5034355;28;43043;-79
2023/09/01 02:19:14;;;;;;;;;;;24.90;71.30;;;;;;5030688;28;44129;-79
2023/09/01 02:21:40;;;;;;;;;;;24.90;71.30;;;;;;5034401;28;43126;-79
2023/09/01 02:24:05;;;;;;;;;;;24.90;71.40;;;;;;5030573;28;43684;-79
2023/09/01 02:26:31;;;;;;;;;;;25.00;71.50;;;;;;5036846;28;43179;-79
2023/09/01 02:28:57;;;;;;;;;;;24.90;71.30;;;;;;5042026;28;43772;-79
2023/09/01 02:31:24;;;;;;;;;;;25.00;71.50;;;;;;5038714;28;42961;-79
2023/09/01 02:33:50;;;;;;;;;;;25.00;71.40;;;;;;5031376;28;43606;-79
2023/09/01 02:36:22;;;;;;;;;;;24.90;71.30;;;;;;5029484;28;42937;-80
2023/09/01 02:38:47;;;;;;;;;;;24.90;69.40;;;;;;5045153;28;43705;-79
2023/09/01 02:41:13;;;;;;;;;;;24.80;71.40;;;;;;5029777;28;42929;-79
2023/09/01 02:43:38;;;;;;;;;;;24.90;70.80;;;;;;5022907;28;43614;-79
2023/09/01 02:46:04;;;;;;;;;;;25.00;71.40;;;;;;5020250;28;42942;-79
2023/09/01 02:48:30;;;;;;;;;;;24.90;71.40;;;;;;5028880;28;43742;-79
2023/09/01 02:50:55;;;;;;;;;;;25.50;71.90;;;;;;5026957;28;42968;-79
2023/09/01 02:53:21;;;;;;;;;;;24.90;71.70;;;;;;5029047;28;42887;-79
2023/09/01 02:55:46;;;;;;;;;;;25.20;71.50;;;;;;5024706;28;42936;-79
2023/09/01 02:58:12;;;;;;;;;;;24.70;71.10;;;;;;5028713;28;43496;-79
2023/09/01 03:00:38;;;;;;;;;;;26.70;72.40;;;;;;5027477;28;42972;-80
2023/09/01 03:03:03;;;;;;;;;;;24.80;71.20;;;;;;5036141;28;43706;-79
2023/09/01 03:05:29;;;;;;;;;;;24.90;70.60;;;;;;5032489;28;43165;-79
2023/09/01 03:07:57;;;;;;;;;;;24.90;71.40;;;;;;5044573;28;43319;-79
2023/09/01 03:10:23;;;;;;;;;;;24.90;71.00;;;;;;5042946;28;43007;-79
2023/09/01 03:12:49;;;;;;;;;;;24.90;70.50;;;;;;5043960;28;44076;-79
2023/09/01 03:15:15;;;;;;;;;;;24.90;70.90;;;;;;5038050;28;43087;-79
2023/09/01 03:17:40;;;;;;;;;;;25.00;71.10;;;;;;5039390;28;43419;-79
2023/09/01 03:20:09;;;;;;;;;;;24.90;70.40;;;;;;5025178;28;42938;-79
2023/09/01 03:22:35;;;;;;;;;;;24.90;70.20;;;;;;5030614;28;43017;-79
2023/09/01 03:25:01;;;;;;;;;;;24.80;71.00;;;;;;5024396;28;43560;-79
2023/09/01 03:27:27;;;;;;;;;;;25.20;71.10;;;;;;5024148;28;44564;-79
2023/09/01 03:29:53;;;;;;;;;;;24.90;70.80;;;;;;5036805;28;42918;-79
2023/09/01 03:32:19;;;;;;;;;;;25.10;70.90;;;;;;5036506;28;43939;-79
2023/09/01 03:34:44;;;;;;;;;;;25.00;70.70;;;;;;5027203;28;42970;-79
2023/09/01 03:37:12;;;;;;;;;;;24.90;70.70;;;;;;5027868;28;42888;-79
2023/09/01 03:39:37;;;;;;;;;;;24.90;70.50;;;;;;5026606;28;43334;-79
2023/09/01 03:42:03;;;;;;;;;;;24.80;70.50;;;;;;5029307;28;43009;-79
2023/09/01 03:44:29;;;;;;;;;;;24.90;70.20;;;;;;5025782;28;42969;-79
2023/09/01 03:46:55;;;;;;;;;;;24.70;70.40;;;;;;5027105;28;44749;-79
2023/09/01 03:49:20;;;;;;;;;;;24.80;70.20;;;;;;5025988;28;43025;-79
2023/09/01 03:51:46;;;;;;;;;;;24.60;70.20;;;;;;5026646;28;43416;-79
2023/09/01 03:54:11;;;;;;;;;;;24.70;70.40;;;;;;5023626;28;42989;-79
2023/09/01 03:56:37;;;;;;;;;;;24.80;70.50;;;;;;5024316;28;43591;-79
2023/09/01 03:59:02;;;;;;;;;;;24.70;70.30;;;;;;5023911;28;43104;-79
2023/09/01 04:01:28;;;;;;;;;;;24.90;70.10;;;;;;5023701;28;43577;-79
2023/09/01 04:03:53;;;;;;;;;;;24.70;70.30;;;;;;5023599;28;42968;-79
2023/09/01 04:06:19;;;;;;;;;;;24.90;70.20;;;;;;5023735;28;43559;-79
2023/09/01 04:08:44;;;;;;;;;;;24.80;69.60;;;;;;5023886;28;43009;-78
2023/09/01 04:11:10;;;;;;;;;;;24.80;70.00;;;;;;5024647;28;43056;-79
2023/09/01 04:13:36;;;;;;;;;;;24.80;70.40;;;;;;5022418;28;43008;-79
2023/09/01 04:16:02;;;;;;;;;;;24.80;70.00;;;;;;5023229;28;43666;-79
2023/09/01 04:18:28;;;;;;;;;;;24.70;69.80;;;;;;5024403;28;42954;-79
2023/09/01 04:20:54;;;;;;;;;;;24.70;69.70;;;;;;5024303;28;42969;-78
2023/09/01 04:23:19;;;;;;;;;;;24.80;69.70;;;;;;5023654;28;43585;-78
2023/09/01 04:25:46;;;;;;;;;;;24.60;69.90;;;;;;5024518;28;43062;-79
2023/09/01 04:28:15;;;;;;;;;;;24.60;69.70;;;;;;5023336;28;42957;-78
2023/09/01 04:30:42;;;;;;;;;;;25.00;67.90;;;;;;5022944;28;43067;-79
2023/09/01 04:33:07;;;;;;;;;;;24.70;69.80;;;;;;5023795;28;42882;-78
2023/09/01 04:35:33;;;;;;;;;;;24.80;70.00;;;;;;5015349;28;43635;-79
2023/09/01 04:37:58;;;;;;;;;;;24.70;69.40;;;;;;5024735;28;42942;-78
2023/09/01 04:40:25;;;;;;;;;;;24.90;69.90;;;;;;5036388;28;43028;-76
2023/09/01 04:42:50;;;;;;;;;;;24.90;69.80;;;;;;5016314;28;42958;-79
2023/09/01 04:45:16;;;;;;;;;;;24.80;69.60;;;;;;5027147;28;42957;-79
2023/09/01 04:47:41;;;;;;;;;;;24.60;69.40;;;;;;5031721;28;42981;-81
2023/09/01 04:50:07;;;;;;;;;;;24.70;70.00;;;;;;5035462;28;43784;-83
2023/09/01 04:52:33;;;;;;;;;;;24.60;69.40;;;;;;5023098;28;43055;-80
2023/09/01 04:54:58;;;;;;;;;;;24.90;69.40;;;;;;5036278;28;43036;-83
2023/09/01 04:57:24;;;;;;;;;;;24.80;69.70;;;;;;5022012;28;42981;-83
2023/09/01 04:59:50;;;;;;;;;;;25.30;70.20;;;;;;5018981;28;43537;-83
2023/09/01 05:02:16;;;;;;;;;;;24.60;69.60;;;;;;5018556;28;42962;-82
2023/09/01 05:04:41;;;;;;;;;;;24.80;69.80;;;;;;5035550;28;44137;-83
2023/09/01 05:07:07;;;;;;;;;;;24.70;69.10;;;;;;5025888;28;42973;-83
2023/09/01 05:09:32;;;;;;;;;;;24.80;70.00;;;;;;5029937;28;43402;-84
2023/09/01 05:11:59;;;;;;;;;;;24.70;69.70;;;;;;5034165;28;42923;-81
2023/09/01 05:14:25;;;;;;;;;;;24.80;69.40;;;;;;5028334;28;43487;-82
2023/09/01 05:16:50;;;;;;;;;;;24.90;69.60;;;;;;5021383;28;43204;-83
2023/09/01 05:19:16;;;;;;;;;;;24.70;69.50;;;;;;5029317;28;43824;-82
2023/09/01 05:21:41;;;;;;;;;;;24.70;69.30;;;;;;5031380;28;42996;-83
2023/09/01 05:24:08;;;;;;;;;;;24.80;69.30;;;;;;5032787;28;44578;-82
2023/09/01 05:26:34;;;;;;;;;;;24.70;69.00;;;;;;5019588;28;42890;-82
2023/09/01 05:29:00;;;;;;;;;;;24.80;69.10;;;;;;5027139;28;44357;-83
2023/09/01 05:31:25;;;;;;;;;;;24.70;69.20;;;;;;5024949;28;42996;-83
2023/09/01 05:33:51;;;;;;;;;;;24.80;68.60;;;;;;5033586;28;43320;-85
2023/09/01 05:36:16;;;;;;;;;;;24.80;69.00;;;;;;5024804;28;43242;-83
2023/09/01 05:38:41;;;;;;;;;;;24.90;69.20;;;;;;5029414;28;43517;-82
2023/09/01 05:41:10;;;;;;;;;;;24.70;68.90;;;;;;5035105;28;43010;-82
2023/09/01 05:43:36;;;;;;;;;;;25.00;68.90;;;;;;5019992;28;43326;-81
2023/09/01 05:46:01;;;;;;;;;;;24.70;68.70;;;;;;5029901;28;42877;-81
2023/09/01 05:48:27;;;;;;;;;;;24.90;68.70;;;;;;5036517;28;42926;-81
2023/09/01 05:50:52;;;;;;;;;;;25.00;68.70;;;;;;5034522;28;42997;-82
2023/09/01 05:53:18;;;;;;;;;;;24.80;68.50;;;;;;5027484;28;43514;-81
2023/09/01 05:55:43;;;;;;;;;;;24.90;68.50;;;;;;5014644;28;43027;-80
2023/09/01 05:58:09;;;;;;;;;;;24.80;68.10;;;;;;5034307;28;42981;-82
2023/09/01 06:00:34;;;;;;;;;;;24.80;68.40;;;;;;5032473;28;43569;-83
2023/09/01 06:03:00;;;;;;;;;;;25.00;68.60;;;;;;5028332;28;43424;-81
2023/09/01 06:05:25;;;;;;;;;;;24.90;68.50;;;;;;5026798;28;43211;-82
2023/09/01 06:07:51;;;;;;;;;;;25.00;67.70;;;;;;5024649;28;44183;-80
2023/09/01 06:10:16;;;;;;;;;;;25.10;68.30;;;;;;5032953;28;42893;-81
2023/09/01 06:12:42;;;;;;;;;;;25.00;68.30;;;;;;5039013;28;44120;-83
2023/09/01 06:15:08;;;;;;;;;;;24.90;68.20;;;;;;5025481;28;42949;-81
2023/09/01 06:17:33;;;;;;;;;;;25.00;68.30;;;;;;5024836;28;42968;-84
2023/09/01 06:19:59;;;;;;;;;;;24.90;68.70;;;;;;5021259;28;42969;-84
2023/09/01 06:22:24;;;;;;;;;;;25.00;68.40;;;;;;5031391;28;43019;-85
2023/09/01 06:24:50;;;;;;;;;;;24.90;67.80;;;;;;5027698;28;42965;-85
2023/09/01 06:27:15;;;;;;;;;;;25.00;68.40;;;;;;5028361;28;43319;-84
2023/09/01 06:29:41;;;;;;;;;;;25.00;68.20;;;;;;5032123;28;42972;-84
2023/09/01 06:32:11;;;;;;;;;;;25.00;68.70;;;;;;5027922;28;45739;-81
2023/09/01 06:34:37;;;;;;;;;;;24.90;68.70;;;;;;5033938;28;42962;-80
2023/09/01 06:37:03;;;;;;;;;;;25.00;69.20;;;;;;5025691;28;43677;-83
2023/09/01 06:39:28;;;;;;;;;;;25.00;68.70;;;;;;5030813;28;43147;-84
2023/09/01 06:41:54;;;;;;;;;;;24.80;69.10;;;;;;5031038;28;43083;-84
2023/09/01 06:44:19;;;;;;;;;;;25.30;69.50;;;;;;5035840;28;42984;-82
2023/09/01 06:46:45;;;;;;;;;;;24.80;69.20;;;;;;5026024;28;43724;-85
2023/09/01 06:49:10;;;;;;;;;;;25.00;69.50;;;;;;5035481;28;42922;-83
2023/09/01 06:51:36;;;;;;;;;;;24.80;69.40;;;;;;5030037;28;42951;-84
2023/09/01 06:54:01;;;;;;;;;;;25.40;69.70;;;;;;5020597;28;42949;-83
2023/09/01 06:56:27;;;;;;;;;;;24.90;69.70;;;;;;5021284;28;43476;-84
2023/09/01 06:58:53;;;;;;;;;;;24.90;69.40;;;;;;5026795;28;42998;-83
2023/09/01 07:01:18;;;;;;;;;;;25.00;69.30;;;;;;5013072;28;43762;-83
2023/09/01 07:03:44;;;;;;;;;;;25.20;69.60;;;;;;5039068;28;42882;-84
2023/09/01 07:06:09;;;;;;;;;;;24.90;69.40;;;;;;5027426;28;44383;-84
2023/09/01 07:08:35;;;;;;;;;;;24.80;69.50;;;;;;5030070;28;43156;-82
2023/09/01 07:11:01;;;;;;;;;;;24.90;69.50;;;;;;5038638;28;43183;-79
2023/09/01 07:13:26;;;;;;;;;;;24.90;69.50;;;;;;5023991;28;43317;-83
2023/09/01 07:15:52;;;;;;;;;;;24.80;69.50;;;;;;5021401;28;43432;-83
2023/09/01 07:18:17;;;;;;;;;;;25.00;69.90;;;;;;5038722;28;43002;-82
2023/09/01 07:20:43;;;;;;;;;;;25.00;69.80;;;;;;5038141;28;42966;-84
2023/09/01 07:23:08;;;;;;;;;;;25.20;69.90;;;;;;5039376;28;43048;-81
2023/09/01 07:25:34;;;;;;;;;;;24.90;69.00;;;;;;5038492;28;43926;-81
2023/09/01 07:27:59;;;;;;;;;;;24.90;69.70;;;;;;5039055;28;42957;-81
2023/09/01 07:30:25;;;;;;;;;;;24.90;69.80;;;;;;5038571;28;43043;-81
2023/09/01 07:32:50;;;;;;;;;;;25.00;69.80;;;;;;5040214;28;43004;-83
2023/09/01 07:35:16;;;;;;;;;;;24.90;69.70;;;;;;5038687;28;43626;-83
2023/09/01 07:37:41;;;;;;;;;;;25.00;69.70;;;;;;5042150;28;43001;-83
2023/09/01 07:40:07;;;;;;;;;;;25.00;69.90;;;;;;5036718;28;43430;-84
2023/09/01 07:42:33;;;;;;;;;;;24.90;69.50;;;;;;5025696;28;42956;-87
2023/09/01 07:44:58;;;;;;;;;;;25.10;70.30;;;;;;5033423;28;43498;-84
2023/09/01 07:47:24;;;;;;;;;;;24.80;70.10;;;;;;5021272;28;43131;-89
2023/09/01 07:49:52;;;;;;;;;;;24.90;70.10;;;;;;5025612;28;43550;-87
2023/09/01 07:52:18;;;;;;;;;;;25.00;69.80;;;;;;5022763;28;43040;-82
2023/09/01 07:54:43;;;;;;;;;;;25.00;70.00;;;;;;5023881;28;43037;-83
2023/09/01 07:57:09;;;;;;;;;;;25.00;70.10;;;;;;5024377;28;43057;-93
2023/09/01 07:59:35;;;;;;;;;;;24.90;70.20;;;;;;5026867;28;43302;-83
2023/09/01 08:02:01;;;;;;;;;;;24.90;70.20;;;;;;5028601;28;43182;-82
2023/09/01 08:04:26;;;;;;;;;;;25.30;69.40;;;;;;5030643;28;43488;-83
2023/09/01 08:06:52;;;;;;;;;;;25.00;70.00;;;;;;5033987;28;42900;-82
2023/09/01 08:09:17;;;;;;;;;;;25.00;70.20;;;;;;5027247;28;42916;-82
2023/09/01 08:11:43;;;;;;;;;;;24.90;69.80;;;;;;5027466;28;43004;-81
2023/09/01 08:14:08;;;;;;;;;;;24.90;69.90;;;;;;5042528;28;43393;-82
2023/09/01 08:16:34;;;;;;;;;;;24.80;69.70;;;;;;5036597;28;43007;-82
2023/09/01 08:19:02;;;;;;;;;;;25.00;70.00;;;;;;5041093;28;43218;-81
2023/09/01 08:21:30;;;;;;;;;;;25.20;70.20;;;;;;5040788;28;43008;-81
2023/09/01 08:23:56;;;;;;;;;;;25.30;70.60;;;;;;5032951;28;43850;-82
2023/09/01 08:26:21;;;;;;;;;;;24.90;70.00;;;;;;5030931;28;43190;-81
2023/09/01 08:28:47;;;;;;;;;;;24.90;69.20;;;;;;5023518;28;43896;-82
2023/09/01 08:31:13;;;;;;;;;;;25.00;69.90;;;;;;5018052;28;43013;-81
2023/09/01 08:33:40;;;;;;;;;;;24.90;70.50;;;;;;5029830;28;42975;-82
2023/09/01 08:36:06;;;;;;;;;;;24.90;70.20;;;;;;5034529;28;42917;-82
2023/09/01 08:38:31;;;;;;;;;;;24.90;70.30;;;;;;5025226;28;44034;-82
2023/09/01 08:41:01;;;;;;;;;;;25.10;70.10;;;;;;5032086;28;42913;-82
2023/09/01 08:43:27;;;;;;;;;;;24.90;69.80;;;;;;5041922;28;43177;-80
2023/09/01 08:45:53;;;;;;;;;;;24.80;69.20;;;;;;5026385;28;43258;-81
2023/09/01 08:48:18;;;;;;;;;;;24.90;69.10;;;;;;5022972;28;43588;-79
2023/09/01 08:50:44;;;;;;;;;;;24.90;69.10;;;;;;5027741;28;42995;-81
2023/09/01 08:53:09;;;;;;;;;;;25.00;69.00;;;;;;5025945;28;43491;-82
2023/09/01 08:55:37;;;;;;;;;;;24.90;69.20;;;;;;5040460;28;43188;-82
2023/09/01 08:58:03;;;;;;;;;;;24.80;69.20;;;;;;5020706;28;44801;-83
2023/09/01 09:00:29;;;;;;;;;;;24.80;69.10;;;;;;5026053;28;43012;-81
2023/09/01 09:02:55;;;;;;;;;;;24.90;69.10;;;;;;5036097;28;43462;-81
2023/09/01 09:05:22;;;;;;;;;;;24.80;68.80;;;;;;5025392;28;43080;-80
2023/09/01 09:07:57;;;;;;;;;;;24.70;68.90;;;;;;5029071;28;43502;-81
2023/09/01 09:10:32;;;;;;;;;;;25.20;66.90;;;;;;5022577;28;42953;-81
2023/09/01 09:12:57;;;;;;;;;;;24.70;68.80;;;;;;5019028;28;44079;-81
2023/09/01 09:15:22;;;;;;;;;;;24.60;68.50;;;;;;5023653;28;43096;-82
2023/09/01 09:17:48;;;;;;;;;;;24.80;68.60;;;;;;5031825;28;42911;-81
2023/09/01 09:20:18;;;;;;;;;;;24.90;68.10;;;;;;5023431;28;43078;-81
2023/09/01 09:22:57;;;;;;;;;;;24.90;69.10;;;;;;5033606;28;42906;-81
2023/09/01 09:25:29;;;;;;;;;;;24.90;66.20;;;;;;5027023;28;43406;-83
2023/09/01 09:27:56;;;;;;;;;;;25.00;66.20;;;;;;5036206;28;43622;-83
2023/09/01 09:30:25;;;;;;;;;;;24.90;67.70;;;;;;5027758;28;42763;-79
2023/09/01 09:33:04;;;;;;;;;;;24.90;68.40;;;;;;5025213;28;43389;-79
2023/09/01 09:35:29;;;;;;;;;;;24.70;66.10;;;;;;5032014;28;43104;-83
2023/09/01 09:37:59;;;;;;;;;;;24.70;68.30;;;;;;5034616;28;42929;-81
2023/09/01 09:40:24;;;;;;;;;;;25.00;66.40;;;;;;5032902;28;43144;-80
2023/09/01 09:42:49;;;;;;;;;;;24.60;68.50;;;;;;5033948;28;42958;-79
2023/09/01 09:45:34;;;;;;;;;;;24.90;68.90;;;;;;5028702;28;42883;-81
2023/09/01 09:48:02;;;;;;;;;;;24.90;67.00;;;;;;5026109;28;43591;-85
2023/09/01 09:50:28;;;;;;;;;;;24.80;68.90;;;;;;5030024;28;42906;-80
2023/09/01 09:52:58;;;;;;;;;;;24.90;69.00;;;;;;5027055;28;43191;-84
2023/09/01 09:55:27;;;;;;;;;;;24.70;68.90;;;;;;5034913;28;42969;-88
2023/09/01 09:57:56;;;;;;;;;;;24.80;66.70;;;;;;5025557;28;42907;-91
2023/09/01 10:00:22;;;;;;;;;;;24.90;68.90;;;;;;5042159;28;43029;-87
2023/09/01 10:02:52;;;;;;;;;;;24.90;69.00;;;;;;5033223;28;43468;-82
2023/09/01 10:05:18;;;;;;;;;;;24.80;68.80;;;;;;5030609;28;43012;-83
2023/09/01 10:07:43;;;;;;;;;;;24.90;68.90;;;;;;5029194;28;43335;-80
2023/09/01 10:10:09;;;;;;;;;;;24.90;69.00;;;;;;5043203;28;43724;-84
2023/09/01 10:12:35;;;;;;;;;;;24.90;68.70;;;;;;5042812;28;43789;-82
2023/09/01 10:15:03;;;;;;;;;;;24.80;68.80;;;;;;5035685;28;42980;-83
2023/09/01 10:17:32;;;;;;;;;;;25.20;69.10;;;;;;5030624;28;42874;-79
2023/09/01 10:19:59;;;;;;;;;;;24.90;69.40;;;;;;5042636;28;43121;-83
2023/09/01 10:22:25;;;;;;;;;;;24.90;69.70;;;;;;5041401;28;43869;-83
2023/09/01 10:25:10;;;;;;;;;;;24.90;69.40;;;;;;5028608;28;43069;-86
2023/09/01 10:27:35;;;;;;;;;;;24.80;67.70;;;;;;5030326;28;43493;-85
2023/09/01 10:30:01;;;;;;;;;;;24.90;69.90;;;;;;5030828;28;43033;-84
2023/09/01 10:32:31;;;;;;;;;;;24.80;69.80;;;;;;5035159;28;43579;-85
2023/09/01 10:34:57;;;;;;;;;;;24.90;68.80;;;;;;5032804;28;42878;-85
2023/09/01 10:37:23;;;;;;;;;;;24.80;69.70;;;;;;5033887;28;42996;-93
2023/09/01 10:39:49;;;;;;;;;;;24.80;69.70;;;;;;5039326;28;42863;-94
2023/09/01 10:42:14;;;;;;;;;;;24.90;70.20;;;;;;5039166;28;42888;-83
2023/09/01 10:44:40;;;;;;;;;;;24.70;69.90;;;;;;5033592;28;42967;-95
2023/09/01 10:47:24;;;;;;;;;;;25.00;69.40;;;;;;5025923;28;43375;-87
2023/09/01 10:49:56;;;;;;;;;;;24.80;67.90;;;;;;5030427;28;43010;-92
2023/09/01 10:52:22;;;;;;;;;;;25.00;67.60;;;;;;5028871;28;42689;-82
2023/09/01 10:55:03;;;;;;;;;;;24.90;69.60;;;;;;5030760;28;42964;-79
2023/09/01 10:57:38;;;;;;;;;;;24.90;69.10;;;;;;5029554;28;43686;-83
2023/09/01 11:00:22;;;;;;;;;;;25.00;66.50;;;;;;5024990;28;43209;-84
2023/09/01 11:02:48;;;;;;;;;;;25.00;66.60;;;;;;5031635;28;42986;-78
2023/09/01 11:05:33;;;;;;;;;;;24.90;68.70;;;;;;5016272;28;43080;-78
2023/09/01 11:08:08;;;;;;;;;;;24.80;68.50;;;;;;5023372;28;43049;-78
2023/09/01 11:10:34;;;;;;;;;;;24.90;66.50;;;;;;5028324;28;42999;-77
2023/09/01 11:12:59;;;;;;;;;;;24.80;68.20;;;;;;5019094;28;43423;-77
2023/09/01 11:15:25;;;;;;;;;;;24.90;68.30;;;;;;5024780;28;43371;-77
2023/09/01 11:17:50;;;;;;;;;;;25.00;68.30;;;;;;5033978;28;43708;-77
2023/09/01 11:20:19;;;;;;;;;;;24.90;68.10;;;;;;5040816;28;43080;-77
2023/09/01 11:22:45;;;;;;;;;;;25.20;68.40;;;;;;5029471;28;43522;-78
2023/09/01 11:25:14;;;;;;;;;;;25.10;68.10;;;;;;5033978;28;43164;-77
2023/09/01 11:27:43;;;;;;;;;;;25.10;65.70;;;;;;5013424;28;43482;-77
2023/09/01 11:30:09;;;;;;;;;;;25.00;65.80;;;;;;5029539;28;42903;-78
2023/09/01 11:32:34;;;;;;;;;;;25.00;67.80;;;;;;5025830;28;43547;-78
2023/09/01 11:35:00;;;;;;;;;;;24.90;67.60;;;;;;5027802;28;43082;-82
2023/09/01 11:37:35;;;;;;;;;;;25.10;67.50;;;;;;5023152;28;43020;-85
2023/09/01 11:40:00;;;;;;;;;;;25.20;65.50;;;;;;5031254;28;43062;-86
2023/09/01 11:42:26;;;;;;;;;;;25.10;67.90;;;;;;5028060;28;42957;-85
2023/09/01 11:44:52;;;;;;;;;;;24.80;67.80;;;;;;5032593;28;43100;-85
2023/09/01 11:47:17;;;;;;;;;;;24.90;67.40;;;;;;5028372;28;43186;-86
2023/09/01 11:49:43;;;;;;;;;;;24.70;67.60;;;;;;5033380;28;43391;-84
2023/09/01 11:52:08;;;;;;;;;;;24.90;68.10;;;;;;5028306;28;43554;-85
2023/09/01 11:54:40;;;;;;;;;;;24.90;68.10;;;;;;5023304;28;42919;-85
2023/09/01 11:57:14;;;;;;;;;;;25.00;65.90;;;;;;5023986;28;43098;-82
2023/09/01 11:59:43;;;;;;;;;;;25.00;65.90;;;;;;5025483;28;43230;-89
2023/09/01 12:02:09;;;;;;;;;;;25.20;66.20;;;;;;5024090;28;43223;-83
2023/09/01 12:04:43;;;;;;;;;;;24.90;68.30;;;;;;5022749;28;43142;-91
2023/09/01 12:07:09;;;;;;;;;;;25.00;68.40;;;;;;5016127;28;42912;-86
2023/09/01 12:09:34;;;;;;;;;;;24.90;68.50;;;;;;5027558;28;43272;-85
2023/09/01 12:12:02;;;;;;;;;;;24.70;68.10;;;;;;5026248;28;42936;-85
2023/09/01 12:14:29;;;;;;;;;;;25.00;69.20;;;;;;5028298;28;42969;-86
2023/09/01 12:16:54;;;;;;;;;;;25.00;69.00;;;;;;5025872;28;42950;-84
2023/09/01 12:19:21;;;;;;;;;;;25.20;69.40;;;;;;5027092;28;43012;-79
2023/09/01 12:21:46;;;;;;;;;;;25.00;69.00;;;;;;5025391;28;44035;-86
2023/09/01 12:24:12;;;;;;;;;;;24.80;69.10;;;;;;5026449;28;43400;-86
2023/09/01 12:26:37;;;;;;;;;;;25.00;69.00;;;;;;5025552;28;42870;-85
2023/09/01 12:29:03;;;;;;;;;;;24.90;69.20;;;;;;5027006;28;42905;-85
2023/09/01 12:31:28;;;;;;;;;;;25.20;69.10;;;;;;5024911;28;43553;-84
2023/09/01 12:33:54;;;;;;;;;;;25.10;69.20;;;;;;5027388;28;43195;-84
2023/09/01 12:36:19;;;;;;;;;;;25.10;69.20;;;;;;5025786;28;42946;-85
2023/09/01 12:38:45;;;;;;;;;;;25.10;69.30;;;;;;5025796;28;42992;-86
2023/09/01 12:41:10;;;;;;;;;;;25.00;69.30;;;;;;5018219;28;43077;-85
2023/09/01 12:43:36;;;;;;;;;;;25.10;68.60;;;;;;5027128;28;42985;-83
2023/09/01 12:46:01;;;;;;;;;;;25.10;68.70;;;;;;5025655;28;43574;-83
2023/09/01 12:48:27;;;;;;;;;;;24.90;69.60;;;;;;5031917;28;43616;-82
2023/09/01 12:50:53;;;;;;;;;;;25.20;69.70;;;;;;5035278;28;43296;-85
2023/09/01 12:53:18;;;;;;;;;;;25.00;69.30;;;;;;5030423;28;42926;-81
2023/09/01 12:55:45;;;;;;;;;;;25.00;69.20;;;;;;5045427;28;45701;-85
2023/09/01 12:58:11;;;;;;;;;;;24.90;69.10;;;;;;5043680;28;43008;-86
2023/09/01 13:00:36;;;;;;;;;;;24.90;69.10;;;;;;5034765;28;42961;-85
2023/09/01 13:03:02;;;;;;;;;;;25.00;69.10;;;;;;5030860;28;43022;-83
2023/09/01 13:05:28;;;;;;;;;;;25.00;68.90;;;;;;5033441;28;43307;-77
2023/09/01 13:07:54;;;;;;;;;;;25.40;69.80;;;;;;5024972;28;43045;-84
2023/09/01 13:10:20;;;;;;;;;;;25.10;69.50;;;;;;5032006;28;44439;-83
2023/09/01 13:12:46;;;;;;;;;;;25.10;68.90;;;;;;5034107;28;43021;-81
2023/09/01 13:15:12;;;;;;;;;;;25.00;69.30;;;;;;5037313;28;44668;-87
2023/09/01 13:17:39;;;;;;;;;;;25.00;69.30;;;;;;5012066;28;42994;-80
2023/09/01 13:20:05;;;;;;;;;;;24.90;69.10;;;;;;5028908;28;43345;-79
2023/09/01 13:22:31;;;;;;;;;;;25.10;68.40;;;;;;5028965;28;42973;-84
2023/09/01 13:24:56;;;;;;;;;;;24.90;69.00;;;;;;5030446;28;43349;-80
2023/09/01 13:27:22;;;;;;;;;;;25.00;69.20;;;;;;5028216;28;43028;-80
2023/09/01 13:29:47;;;;;;;;;;;25.10;69.20;;;;;;5024323;28;44320;-81
2023/09/01 13:32:13;;;;;;;;;;;25.00;69.00;;;;;;5021805;28;42942;-82
2023/09/01 13:34:39;;;;;;;;;;;25.10;69.00;;;;;;5034265;28;43556;-86
2023/09/01 13:37:09;;;;;;;;;;;25.10;68.90;;;;;;5040269;28;43024;-81
2023/09/01 13:39:34;;;;;;;;;;;25.10;69.10;;;;;;5023352;28;42931;-79
2023/09/01 13:42:00;;;;;;;;;;;25.10;69.00;;;;;;5039898;28;43009;-87
2023/09/01 13:44:25;;;;;;;;;;;25.10;69.40;;;;;;5038405;28;43080;-86
2023/09/01 13:46:51;;;;;;;;;;;25.20;69.50;;;;;;5040906;28;42907;-85
2023/09/01 13:49:19;;;;;;;;;;;25.10;69.40;;;;;;5036399;28;43661;-87
2023/09/01 13:51:44;;;;;;;;;;;25.30;69.60;;;;;;5028962;28;43161;-84
2023/09/01 13:54:10;;;;;;;;;;;25.20;69.60;;;;;;5024985;28;43025;-79
2023/09/01 13:56:35;;;;;;;;;;;25.60;69.90;;;;;;5024506;28;43148;-84
2023/09/01 13:59:01;;;;;;;;;;;25.10;69.70;;;;;;5019784;28;43643;-88
2023/09/01 14:01:27;;;;;;;;;;;25.10;69.40;;;;;;5036935;28;43248;-81
2023/09/01 14:03:52;;;;;;;;;;;25.20;68.80;;;;;;5031476;28;42973;-86
2023/09/01 14:06:18;;;;;;;;;;;25.20;69.90;;;;;;5033339;28;43123;-86
2023/09/01 14:08:43;;;;;;;;;;;25.10;69.40;;;;;;5038515;28;43119;-86
2023/09/01 14:11:09;;;;;;;;;;;25.10;69.00;;;;;;5034073;28;42919;-85
2023/09/01 14:13:34;;;;;;;;;;;25.10;69.40;;;;;;5034487;28;43837;-90